Flight Track Log - Related Links

Times and Time Zones

All times are in EDT time to prevent confusion due to time zone crossing. See the JBU226 flight status page for this flight to view local times or setup timezone preferences in your user account.

Time Position Orientation Groundspeed Altitude Reporting Facility
EDT Latitude Longitude Course Direction KTS MPH feet Rate Location/Type
Thu 06:48:12 PM 28.4500 -81.3000 North 172 198 1,200  Level Orlando TRACON
Thu 06:48:31 PM 28.4500 -81.2833 90° East 161 185 2,100 1,462 Climbing Orlando TRACON
Thu 06:49:30 PM 28.5000 -81.2667 16° North 237 273 3,100 1,664 Climbing Orlando TRACON
Thu 06:50:30 PM 28.5833 -81.2500 10° North 286 329 5,400 1,946 Climbing Orlando TRACON
Thu 06:51:00 PM 28.8833 -81.3550 355° North  Level FlightAware Approximate
Thu 06:51:58 PM 28.6697 -81.2789 344° North 277 319 7,900  Level Jacksonville Center
Thu 06:52:00 PM 29.0025 -81.3672 350° North  Level FlightAware Approximate
Thu 06:52:58 PM 28.7331 -81.3253 327° Northwest 267 307 10,300  Level Jacksonville Center
Thu 06:53:00 PM 29.1210 -81.3833 North  Level FlightAware Approximate
Thu 06:53:58 PM 28.8064 -81.3478 345° North 267 307 12,900  Level Jacksonville Center
Thu 06:54:58 PM 28.8900 -81.3558 355° North 279 321 15,600 2,400 Climbing Jacksonville Center
Thu 06:55:58 PM 28.9753 -81.3333 13° North 284 327 17,700 1,900 Climbing Jacksonville Center
Thu 06:56:58 PM 29.0728 -81.2983 17° North 319 367 19,400 1,750 Climbing Jacksonville Center
Thu 06:57:58 PM 29.1706 -81.2589 19° North 348 400 21,200 1,450 Climbing Jacksonville Center
Thu 06:58:58 PM 29.2742 -81.2119 22° Northeast 381 438 22,300 1,800 Climbing Jacksonville Center
Thu 06:59:58 PM 29.3886 -81.1861 11° North 401 461 24,800 2,100 Climbing Jacksonville Center
Thu 07:00:58 PM 29.5075 -81.1744 North 401 461 26,500 1,550 Climbing Jacksonville Center
Thu 07:01:58 PM 29.6222 -81.1606 North 395 455 27,900 950 Climbing Jacksonville Center
Thu 07:02:58 PM 29.7431 -81.1511 North 416 479 28,400 1,000 Climbing Jacksonville Center
Thu 07:03:58 PM 29.8558 -81.1564 358° North 432 497 29,900 1,300 Climbing Jacksonville Center
Thu 07:04:58 PM 29.9794 -81.1806 350° North 444 511 31,000 550 Climbing Jacksonville Center
Thu 07:05:58 PM 30.1028 -81.2022 351° North 444 511 31,000 50 Level Jacksonville Center
Thu 07:06:58 PM 30.2286 -81.2289 350° North 449 517 31,100 950 Climbing Jacksonville Center
Thu 07:07:58 PM 30.3542 -81.2533 350° North 449 517 32,900 1,700 Climbing Jacksonville Center
Thu 07:08:58 PM 30.4733 -81.2778 350° North 449 517 34,500 1,300 Climbing Jacksonville Center
Thu 07:09:58 PM 30.5928 -81.3047 349° North 444 511 35,500 850 Climbing Jacksonville Center
Thu 07:10:58 PM 30.7100 -81.3269 352° North 433 498 36,200 650 Climbing Jacksonville Center
Thu 07:11:00 PM 30.7045 -81.3480 352° North  Level FlightAware Approximate
Thu 07:11:58 PM 30.8292 -81.3492 351° North 433 498 36,800  Level Jacksonville Center
Thu 07:12:58 PM 30.9506 -81.3761 349° North 433 498 37,000 100 Climbing Jacksonville Center
Thu 07:13:58 PM 31.0764 -81.4033 350° North 433 498 37,000  Level Jacksonville Center
Thu 07:14:58 PM 31.2036 -81.4011 North 444 511 37,000  Level Jacksonville Center
Thu 07:16:00 PM 31.3043 -81.3302 31° Northeast  Level FlightAware Approximate
Thu 07:16:58 PM 31.4458 -81.2367 31° Northeast 465 535 37,000  Level Jacksonville Center
Thu 07:17:58 PM 31.5494 -81.1689 29° Northeast 474 545 37,000  Level Jacksonville Center
Thu 07:18:58 PM 31.6775 -81.0811 30° Northeast 474 545 37,000  Level Jacksonville Center
Thu 07:19:58 PM 31.7808 -81.0108 30° Northeast 479 551 37,000  Level Jacksonville Center
Thu 07:20:58 PM 31.9069 -80.9250 30° Northeast 479 551 37,000  Level Jacksonville Center
Thu 07:21:58 PM 32.0228 -80.8464 30° Northeast 479 551 37,000  Level Jacksonville Center
Thu 07:22:58 PM 32.1281 -80.7756 30° Northeast 479 551 37,000  Level Jacksonville Center
Thu 07:23:58 PM 32.2436 -80.6967 30° Northeast 474 545 37,000  Level Jacksonville Center
Thu 07:24:58 PM 32.3611 -80.6128 31° Northeast 479 551 37,000  Level Jacksonville Center
Thu 07:25:58 PM 32.4764 -80.5311 31° Northeast 479 551 37,000  Level Jacksonville Center
Thu 07:26:58 PM 32.5939 -80.4514 30° Northeast 479 551 37,000  Level Jacksonville Center
Thu 07:27:58 PM 32.7092 -80.3719 30° Northeast 479 551 37,000  Level Jacksonville Center
Thu 07:28:58 PM 32.8244 -80.2919 30° Northeast 479 551 37,000  Level Jacksonville Center
Thu 07:29:58 PM 32.9561 -80.1992 31° Northeast 489 563 37,000  Level Jacksonville Center
Thu 07:30:58 PM 33.0733 -80.1186 30° Northeast 493 567 37,000  Level Jacksonville Center
Thu 07:31:58 PM 33.1906 -80.0333 31° Northeast 493 567 37,000  Level Jacksonville Center
Thu 07:32:58 PM 33.3056 -79.9525 30° Northeast 481 554 37,000  Level Jacksonville Center
Thu 07:33:58 PM 33.4206 -79.8714 30° Northeast 481 554 37,000  Level Jacksonville Center
Thu 07:34:58 PM 33.5375 -79.7903 30° Northeast 481 554 37,000  Level Jacksonville Center
Thu 07:35:58 PM 33.6522 -79.7089 31° Northeast 481 554 37,000  Level Jacksonville Center
Thu 07:36:58 PM 33.7692 -79.6247 31° Northeast 481 554 37,000  Level Jacksonville Center
Thu 07:37:58 PM 33.8878 -79.5378 31° Northeast 481 554 37,000  Level Jacksonville Center
Thu 07:38:58 PM 34.0064 -79.4531 31° Northeast 481 554 37,000 -50 Level Jacksonville Center
Thu 07:39:58 PM 34.1108 -79.3811 30° Northeast 481 554 36,900  Descending Jacksonville Center
Thu 07:40:58 PM 34.2294 -79.2936 31° Northeast 481 554 37,000 44 Climbing Jacksonville Center
Thu 07:42:14 PM 34.3783 -79.1978 28° Northeast 506 582 37,000  Level Washington Center
Thu 07:43:14 PM 34.5033 -79.1278 25° Northeast 494 568 37,000  Level Washington Center
Thu 07:44:12 PM 34.6286 -79.0547 26° Northeast 489 563 37,000 -252 Level Washington Center
Thu 07:45:13 PM 34.7561 -78.9819 25° Northeast 489 563 36,500 -744 Descending Washington Center
Thu 07:46:13 PM 34.8789 -78.9111 25° Northeast 495 570 35,500 -756 Descending Washington Center
Thu 07:47:12 PM 35.0083 -78.8353 26° Northeast 495 570 35,000 -252 Descending Washington Center
Thu 07:48:12 PM 35.1314 -78.7614 26° Northeast 495 570 35,000  Level Washington Center
Thu 07:49:13 PM 35.2586 -78.6878 25° Northeast 495 570 35,000  Level Washington Center
Thu 07:50:14 PM 35.3983 -78.6039 26° Northeast 502 578 35,000  Level Washington Center
Thu 07:51:12 PM 35.5086 -78.5367 26° Northeast 502 578 35,000  Level Washington Center
Thu 07:52:13 PM 35.6544 -78.4525 25° Northeast 502 578 35,000  Level Washington Center
Thu 07:53:13 PM 35.7814 -78.3778 26° Northeast 502 578 35,000 -101 Level Washington Center
Thu 07:54:12 PM 35.9106 -78.3028 25° Northeast 502 578 34,800 -1,261 Descending Washington Center
Thu 07:55:12 PM 36.0375 -78.2247 26° Northeast 502 578 32,500 -2,182 Descending Washington Center
Thu 07:56:13 PM 36.1622 -78.1492 26° Northeast 497 572 30,400 -2,115 Descending Washington Center
Thu 07:57:14 PM 36.2825 -78.0758 26° Northeast 497 572 28,200 -1,714 Descending Washington Center
Thu 07:58:12 PM 36.3967 -78.0072 26° Northeast 476 548 27,000 -605 Descending Washington Center
Thu 07:59:13 PM 36.4981 -77.9458 26° Northeast 433 498 27,000  Level Washington Center
Thu 08:00:14 PM 36.5911 -77.8864 27° Northeast 392 451 27,000  Level Washington Center
Thu 08:01:14 PM 36.6839 -77.8297 26° Northeast 373 429 27,000  Level Washington Center
Thu 08:02:12 PM 36.7789 -77.7703 27° Northeast 367 422 27,000  Level Washington Center
Thu 08:03:14 PM 36.8758 -77.7131 25° Northeast 373 429 27,000  Level Washington Center
Thu 08:04:12 PM 36.9686 -77.6533 27° Northeast 373 429 27,000  Level Washington Center
Thu 08:05:13 PM 37.0636 -77.5933 27° Northeast 373 429 27,000  Level Washington Center
Thu 08:06:13 PM 37.1583 -77.5358 26° Northeast 373 429 27,000  Level Washington Center
Thu 08:07:13 PM 37.2264 -77.4569 43° Northeast 360 414 27,000 -295 Level Washington Center
Thu 08:08:15 PM 37.1778 -77.3722 126° Southeast 263 303 26,400 -504 Descending Washington Center
Thu 08:09:12 PM 37.0981 -77.3964 194° South 171 197 26,000 -202 Descending Washington Center
Thu 08:10:14 PM 37.0222 -77.4442 207° Southwest 229 264 26,000  Level Washington Center
Thu 08:11:14 PM 36.9464 -77.4917 207° Southwest 272 313 26,000  Level Washington Center
Thu 08:12:12 PM 36.8767 -77.5469 212° Southwest 294 338 26,000  Level Washington Center
Thu 08:13:13 PM 36.8875 -77.6511 277° West 265 305 26,000  Level Washington Center
Thu 08:14:14 PM 36.9833 -77.6461 North 185 213 26,000  Level Washington Center
Thu 08:15:12 PM 37.0783 -77.5861 27° Northeast 267 307 26,000  Level Washington Center
Thu 08:16:12 PM 37.1731 -77.5311 25° Northeast 322 371 26,000  Level Washington Center
Thu 08:17:12 PM 37.2247 -77.4358 56° Northeast 346 398 26,000  Level Washington Center
Thu 08:18:12 PM 37.1611 -77.3667 139° Southeast 214 246 26,000  Level Washington Center
Thu 08:19:13 PM 37.0811 -77.4092 203° Southwest 175 201 26,000  Level Washington Center
Thu 08:20:14 PM 37.0033 -77.4567 206° Southwest 235 270 26,000  Level Washington Center
Thu 08:21:12 PM 36.9272 -77.5042 207° Southwest 283 326 26,000  Level Washington Center
Thu 08:22:13 PM 36.8636 -77.5700 220° Southwest 302 348 26,000  Level Washington Center
Thu 08:23:14 PM 36.9267 -77.6678 309° West 208 239 26,000  Level Washington Center
Thu 08:24:12 PM 37.0194 -77.6208 22° Northeast 186 214 26,000 -254 Level Washington Center
Thu 08:25:12 PM 37.1119 -77.5661 25° Northeast 273 314 25,500 -496 Descending Washington Center
Thu 08:26:13 PM 37.2047 -77.5033 28° Northeast 322 371 25,000 -248 Descending Washington Center
Thu 08:27:13 PM 37.2064 -77.3964 89° East 260 299 25,000  Level Washington Center
Thu 08:28:14 PM 37.1275 -77.3867 174° South 147 169 25,000  Level Washington Center
Thu 08:29:12 PM 37.0517 -77.4317 205° Southwest 199 229 25,000  Level Washington Center
Thu 08:30:13 PM 36.9800 -77.4794 208° Southwest 247 284 25,000  Level Washington Center
Thu 08:31:12 PM 36.9042 -77.5244 205° Southwest 287 330 25,000  Level Washington Center
Thu 08:32:13 PM 36.8672 -77.6169 243° Southwest 281 323 25,000  Level Washington Center
Thu 08:33:14 PM 36.9456 -77.6683 332° Northwest 193 222 25,000  Level Washington Center
Thu 08:34:12 PM 37.0403 -77.6111 26° Northeast 240 276 25,000  Level Washington Center
Thu 08:35:12 PM 37.1392 -77.5719 18° North 300 345 25,000  Level Washington Center
Thu 08:36:13 PM 37.2322 -77.6186 338° Northwest 326 375 25,000 -1,033 Level Washington Center
Thu 08:37:14 PM 37.3231 -77.6681 337° Northwest 336 387 22,900 -1,513 Descending Washington Center
Thu 08:38:12 PM 37.4189 -77.6758 356° North 337 388 22,000 -458 Descending Washington Center
Thu 08:39:12 PM 37.4625 -77.5594 65° Northeast 275 316 22,000  Level Washington Center
Thu 08:40:14 PM 37.4853 -77.4422 76° East 284 327 22,000  Level Washington Center
Thu 08:41:12 PM 37.5672 -77.4075 19° North 278 320 22,000 -202 Level Washington Center
Thu 08:42:13 PM 37.6542 -77.4569 336° Northwest 275 316 21,600 -793 Descending Washington Center
Thu 08:43:13 PM 37.7511 -77.5117 336° Northwest 324 373 20,400 -1,785 Descending Washington Center
Thu 08:44:14 PM 37.8558 -77.4986 North 355 409 18,000 -2,050 Descending Washington Center
Thu 08:45:13 PM 37.9486 -77.4244 32° Northeast 355 409 16,300 -1,550 Descending Washington Center
Thu 08:46:14 PM 38.0225 -77.3658 32° Northeast 369 425 14,900 -1,563 Descending Washington Center
Thu 08:47:12 PM 38.1194 -77.2942 30° Northeast 369 425 13,200 -1,678 Descending Washington Center
Thu 08:48:12 PM 38.2081 -77.2275 31° Northeast 363 418 11,600 -1,587 Descending Washington Center
Thu 08:49:13 PM 38.2986 -77.1553 32° Northeast 358 412 10,000 -787 Descending Washington Center
Thu 08:50:14 PM 38.3781 -77.1411 North 326 375 10,000  Level Washington Center
Thu 08:51:14 PM 38.4847 -77.1194 North 332 382 10,000  Level Washington Center
Thu 08:52:12 PM 38.5725 -77.1000 10° North 331 381 10,000 -555 Level Washington Center
Thu 08:53:13 PM 38.6539 -77.0831 North 319 367 8,900 -1,167 Descending Washington Center
Thu 08:54:00 PM 38.7167 -77.0667 12° North 292 336 7,900 -1,434 Descending Potomac TRACON
Thu 08:55:06 PM 38.8000 -77.1000 343° North 293 337 6,200 -1,333 Descending Potomac TRACON
Thu 08:56:06 PM 38.8667 -77.1500 330° Northwest 272 313 5,100 -579 Descending Potomac TRACON
Thu 08:57:00 PM 38.9000 -77.2000 311° West 215 247 5,100 -450 Level Potomac TRACON
Thu 08:58:06 PM 38.9500 -77.2500 322° Northwest 187 215 4,200 -1,000 Descending Potomac TRACON
Thu 08:59:00 PM 38.9833 -77.2167 38° Northeast 200 230 3,100 -632 Descending Potomac TRACON
Thu 09:00:00 PM 38.9667 -77.1500 108° East 182 209 3,000 -550 Descending Potomac TRACON
Thu 09:01:00 PM 38.9333 -77.1167 142° Southeast 176 203 2,000 -900 Descending Potomac TRACON
Thu 09:02:00 PM 38.9000 -77.0833 142° Southeast 147 169 1,200 -750 Descending Potomac TRACON
Thu 09:03:00 PM 38.8833 -77.0500 123° Southeast 127 146 500 -700 Descending Potomac TRACON
Thu 09:04:00 PM 38.8500 -77.0333 111° Southeast  Level FlightAware Approximate

Login

Don't have an account? Register now (free) for customized features, flight alerts, and more!